Time;durP1;ratioP1;P1;durP2;ratioP2;P2;SDS_P1;SDS_P2;PMS_P1;PMS_P2;Temp;Humidity;BMP_temperature;BMP_pressure;BME280_temperature;BME280_humidity;BME280_pressure;Samples;Min_cycle;Max_cycle;Signal;HPM_P1;HPM_P2
2022/05/24 00:00:14;;;;;;;4.55;2.40;;;;;;;11.34;58.57;99689.63;1703071;83;21543;-71
2022/05/24 00:02:42;;;;;;;5.80;2.90;;;;;;;11.29;58.58;99699.33;1660162;85;21040;-71
2022/05/24 00:05:10;;;;;;;7.20;2.72;;;;;;;11.26;58.61;99694.30;1690044;83;21876;-71
2022/05/24 00:07:39;;;;;;;5.75;2.62;;;;;;;11.27;58.61;99702.58;1683300;83;21088;-70
2022/05/24 00:10:10;;;;;;;5.35;2.85;;;;;;;11.24;58.67;99693.62;1688446;83;21019;-70
2022/05/24 00:12:38;;;;;;;5.28;2.77;;;;;;;11.22;58.79;99696.06;1684703;83;21071;-71
2022/05/24 00:15:23;;;;;;;11.43;2.65;;;;;;;11.20;58.84;99691.41;1683177;83;21417;-71
2022/05/24 00:17:58;;;;;;;;;;;;;;;11.17;58.88;99688.05;1677966;84;21906;-71
2022/05/24 00:20:29;;;;;;;5.47;2.65;;;;;;;11.17;58.90;99690.70;1633541;86;20167;-70
2022/05/24 00:22:56;;;;;;;6.00;2.75;;;;;;;11.16;58.91;99699.61;1688483;83;21111;-70
2022/05/24 00:25:23;;;;;;;5.40;2.92;;;;;;;11.17;58.90;99701.77;1665747;85;21013;-70
2022/05/24 00:27:51;;;;;;;6.78;2.62;;;;;;;11.14;59.04;99696.28;1681650;83;21033;-70
2022/05/24 00:30:19;;;;;;;7.20;2.83;;;;;;;11.08;59.22;99698.16;1666343;85;21897;-71
2022/05/24 00:32:46;;;;;;;3.17;2.70;;;;;;;11.06;59.33;99703.25;1657747;85;21516;-69
2022/05/24 00:35:13;;;;;;;4.87;2.52;;;;;;;11.02;59.50;99707.16;1682510;83;21439;-70
2022/05/24 00:37:42;;;;;;;4.47;2.90;;;;;;;10.93;59.73;99705.36;1674375;83;21122;-68
2022/05/24 00:40:13;;;;;;;3.95;2.65;;;;;;;10.89;59.90;99706.94;1648370;85;21141;-68
2022/05/24 00:42:41;;;;;;;6.17;2.98;;;;;;;10.88;60.00;99707.91;1641414;86;22801;-70
2022/05/24 00:45:13;;;;;;;4.28;2.77;;;;;;;10.86;60.11;99707.22;1687228;83;21026;-70
2022/05/24 00:47:54;;;;;;;4.53;3.10;;;;;;;10.87;60.25;99711.53;1664572;84;21010;-71
2022/05/24 00:50:28;;;;;;;6.78;2.98;;;;;;;10.87;60.31;99711.53;1653348;86;21086;-69
2022/05/24 00:53:02;;;;;;;3.35;2.92;;;;;;;10.84;60.45;99710.98;1627965;86;21049;-70
2022/05/24 00:55:31;;;;;;;6.25;2.90;;;;;;;10.80;60.61;99710.41;1650705;86;21842;-70
2022/05/24 00:58:24;;;;;;;5.37;3.00;;;;;;;10.78;60.65;99718.14;1664860;86;21067;-70
2022/05/24 01:00:51;;;;;;;4.60;2.90;;;;;;;10.74;60.83;99712.31;1666068;84;20984;-71
2022/05/24 01:03:18;;;;;;;4.33;3.30;;;;;;;10.73;60.89;99713.28;1664654;84;21033;-71
2022/05/24 01:05:44;;;;;;;4.92;2.98;;;;;;;10.72;61.06;99712.94;1687043;83;21144;-71
2022/05/24 01:08:13;;;;;;;4.37;2.70;;;;;;;10.73;61.15;99716.41;1654569;86;21016;-70
2022/05/24 01:10:50;;;;;;;5.53;2.90;;;;;;;10.71;61.23;99719.20;1648853;85;21025;-71
2022/05/24 01:13:21;;;;;;;7.53;3.10;;;;;;;10.69;61.23;99714.52;1675145;83;20988;-71
2022/05/24 01:15:48;;;;;;;6.12;3.02;;;;;;;10.67;61.23;99716.47;1645117;86;21033;-71
2022/05/24 01:18:16;;;;;;;6.20;3.00;;;;;;;10.66;61.22;99714.80;1701356;83;21483;-70
2022/05/24 01:20:46;;;;;;;6.10;3.00;;;;;;;10.67;61.18;99716.47;1744655;80;21910;-71
2022/05/24 01:23:51;;;;;;;4.55;3.10;;;;;;;10.65;61.14;99717.10;1722705;82;21413;-70
2022/05/24 01:26:38;;;;;;;4.40;3.00;;;;;;;10.63;61.26;99720.38;1715625;82;21508;-70
2022/05/24 01:29:07;;;;;;;6.60;3.00;;;;;;;10.55;61.42;99722.86;1715272;83;21017;-70
2022/05/24 01:37:07;;;;;;;7.85;2.83;;;;;;;10.47;61.48;99729.31;1666500;84;21075;-69
2022/05/24 01:39:33;;;;;;;4.33;2.70;;;;;;;10.42;61.45;99727.09;1631768;86;21105;-70
2022/05/24 01:42:00;;;;;;;5.08;2.83;;;;;;;10.42;61.44;99726.23;1644317;86;21056;-69
2022/05/24 01:44:48;;;;;;;7.20;3.08;;;;;;;10.38;61.46;99723.53;1654537;86;21014;-70
2022/05/24 01:47:15;;;;;;;4.78;2.90;;;;;;;10.37;61.41;99720.54;1653392;85;21448;-72
2022/05/24 01:49:47;;;;;;;3.72;2.80;;;;;;;10.34;61.49;99726.10;1651036;85;21693;-72
2022/05/24 01:52:35;;;;;;;5.45;3.30;;;;;;;10.27;61.56;99725.80;1721562;83;21031;-71
2022/05/24 01:55:34;;;;;;;7.92;3.05;;;;;;;10.23;61.69;99729.66;1668169;85;21019;-71
2022/05/24 01:58:04;;;;;;;3.98;2.90;;;;;;;10.18;61.76;99734.01;1654483;85;20985;-71
2022/05/24 02:00:31;;;;;;;4.30;2.98;;;;;;;10.16;61.85;99732.00;1683485;83;21904;-71
2022/05/24 02:02:58;;;;;;;6.17;3.35;;;;;;;10.14;61.96;99738.39;1684649;83;21067;-72
2022/05/24 02:05:33;;;;;;;6.03;2.85;;;;;;;10.11;62.01;99734.67;1652117;85;21084;-71
2022/05/24 02:07:59;;;;;;;;;;;;;;;10.08;61.95;99737.11;1635732;87;21084;-71
2022/05/24 02:10:31;;;;;;;5.78;3.00;;;;;;;10.07;61.95;99744.67;1667083;84;20149;-72
2022/05/24 02:12:59;;;;;;;4.53;3.02;;;;;;;10.01;62.08;99746.03;1669504;84;22836;-71
2022/05/24 02:15:29;;;;;;;4.83;3.12;;;;;;;9.95;62.16;99741.30;1665038;84;20954;-72
2022/05/24 02:18:09;;;;;;;4.90;3.30;;;;;;;9.89;62.29;99743.63;1652140;85;21112;-72
2022/05/24 02:20:41;;;;;;;6.10;3.15;;;;;;;9.86;62.29;99743.91;1663786;85;21078;-70
2022/05/24 02:23:10;;;;;;;8.20;3.08;;;;;;;9.83;62.40;99741.52;1678231;85;21002;-70
2022/05/24 02:25:49;;;;;;;5.20;3.58;;;;;;;9.79;62.49;99744.08;1684160;85;22550;-70
2022/05/24 02:28:16;;;;;;;5.78;3.08;;;;;;;9.73;62.58;99743.63;1649514;86;21041;-70
2022/05/24 02:30:54;;;;;;;5.62;3.60;;;;;;;9.71;62.72;99745.56;1681624;83;21017;-72
2022/05/24 02:33:22;;;;;;;4.95;3.40;;;;;;;9.68;62.81;99743.68;1688690;84;20990;-71
2022/05/24 02:35:48;;;;;;;4.15;3.15;;;;;;;9.67;62.84;99746.80;1665010;84;21160;-71
2022/05/24 02:38:16;;;;;;;4.20;3.10;;;;;;;9.71;62.83;99750.83;1675458;83;21919;-69
2022/05/24 02:43:31;;;;;;;5.80;3.33;;;;;;;9.78;62.89;99754.28;1711912;82;21035;-71
2022/05/24 02:45:59;;;;;;;5.42;3.17;;;;;;;9.78;62.86;99753.80;1700636;82;21467;-71
2022/05/24 02:48:26;;;;;;;4.22;3.00;;;;;;;9.79;62.87;99750.67;1711617;83;21019;-71
2022/05/24 02:50:52;;;;;;;5.78;3.50;;;;;;;9.82;62.89;99756.98;1712344;82;22227;-71
2022/05/24 02:53:21;;;;;;;4.65;3.22;;;;;;;9.82;62.81;99755.67;1712980;83;21171;-71
2022/05/24 02:55:48;;;;;;;4.85;3.52;;;;;;;9.85;62.80;99754.11;1710919;82;21083;-71
2022/05/24 02:58:14;;;;;;;4.55;2.83;;;;;;;9.86;62.94;99760.56;1714819;82;21087;-70
2022/05/24 03:00:41;;;;;;;4.15;3.27;;;;;;;9.85;62.96;99753.62;1719614;82;21059;-70
2022/05/24 03:03:09;;;;;;;4.50;3.10;;;;;;;9.86;62.91;99765.84;1716556;82;22251;-71
2022/05/24 03:05:35;;;;;;;5.55;3.50;;;;;;;9.92;62.74;99764.46;1711136;83;21103;-71
2022/05/24 03:10:49;;;;;;;7.15;3.02;;;;;;;10.06;62.59;99768.07;1712414;82;21488;-70
2022/05/24 03:16:11;;;;;;;7.15;3.33;;;;;;;10.16;62.26;99765.47;1663792;84;21880;-70
2022/05/24 03:18:40;;;;;;;6.50;3.08;;;;;;;10.20;61.94;99770.81;1662589;84;21456;-70
2022/05/24 03:21:06;;;;;;;8.18;3.35;;;;;;;10.27;61.80;99769.35;1715497;83;21070;-70
2022/05/24 03:23:34;;;;;;;5.58;3.30;;;;;;;10.32;61.46;99775.88;1706916;83;21058;-70
2022/05/24 03:26:01;;;;;;;5.08;3.20;;;;;;;10.39;61.32;99771.39;1710075;83;20916;-70
2022/05/24 03:28:28;;;;;;;5.15;3.20;;;;;;;10.43;61.18;99768.36;1720942;81;22559;-71
2022/05/24 03:30:55;;;;;;;4.22;2.80;;;;;;;10.49;60.83;99774.89;1722404;82;21016;-71
2022/05/24 03:33:21;;;;;;;3.90;3.10;;;;;;;10.54;60.46;99774.01;1709529;82;20960;-72
2022/05/24 03:35:48;;;;;;;3.77;2.90;;;;;;;10.60;60.24;99777.41;1714488;82;21086;-71
2022/05/24 03:38:15;;;;;;;4.12;3.27;;;;;;;10.67;59.87;99779.02;1719431;82;21015;-70
2022/05/24 03:40:42;;;;;;;3.52;2.90;;;;;;;10.72;59.70;99786.90;1676354;84;22272;-71
2022/05/24 03:43:13;;;;;;;9.35;3.10;;;;;;;10.76;59.52;99781.68;1653852;85;21037;-70
2022/05/24 03:45:41;;;;;;;5.65;3.30;;;;;;;10.81;59.28;99782.11;1681574;83;21092;-72
2022/05/24 03:48:08;;;;;;;6.17;2.80;;;;;;;10.87;58.98;99784.19;1690714;83;21103;-72
2022/05/24 03:50:34;;;;;;;5.37;2.55;;;;;;;10.95;58.81;99789.27;1658680;86;21570;-71
2022/05/24 03:53:01;;;;;;;6.12;3.00;;;;;;;11.01;58.65;99791.38;1653394;85;21960;-71
2022/05/24 03:55:28;;;;;;;5.62;2.75;;;;;;;11.07;58.40;99785.52;1660604;85;21010;-72
2022/05/24 03:58:00;;;;;;;4.70;2.90;;;;;;;11.13;58.05;99783.16;1656855;86;21065;-72
2022/05/24 04:00:34;;;;;;;5.30;2.95;;;;;;;11.21;57.60;99784.27;1658029;85;21119;-71
2022/05/24 04:03:01;;;;;;;7.60;2.67;;;;;;;11.27;57.36;99787.17;1663676;86;21025;-71
2022/05/24 04:05:28;;;;;;;3.77;2.77;;;;;;;11.35;57.38;99786.47;1675918;84;21957;-72
2022/05/24 04:07:56;;;;;;;4.35;3.00;;;;;;;11.42;57.31;99788.42;1716765;82;21456;-72
2022/05/24 04:10:25;;;;;;;3.33;2.98;;;;;;;11.50;56.92;99793.50;1703924;83;21382;-71
2022/05/24 04:12:51;;;;;;;6.25;3.00;;;;;;;11.56;56.86;99786.30;1719449;83;21483;-70
2022/05/24 04:15:19;;;;;;;3.67;2.98;;;;;;;11.62;56.60;99786.57;1716660;82;21062;-71
2022/05/24 04:17:47;;;;;;;4.00;2.50;;;;;;;11.71;56.09;99786.20;1731290;81;22594;-71
2022/05/24 04:20:14;;;;;;;5.12;3.17;;;;;;;11.79;55.58;99794.27;1719378;83;21024;-71
2022/05/24 04:22:41;;;;;;;5.03;2.92;;;;;;;11.86;55.27;99786.11;1720729;83;21053;-71
2022/05/24 04:25:08;;;;;;;6.35;3.08;;;;;;;11.93;54.94;99784.56;1717356;82;21039;-70
2022/05/24 04:27:34;;;;;;;8.15;2.90;;;;;;;12.01;54.22;99783.84;1722024;81;21023;-71
2022/05/24 04:30:00;;;;;;;5.72;2.95;;;;;;;12.07;54.02;99785.08;1718191;81;22537;-70
2022/05/24 04:32:28;;;;;;;5.12;2.62;;;;;;;12.14;53.98;99784.33;1717101;83;21016;-71
2022/05/24 04:34:55;;;;;;;6.65;3.37;;;;;;;12.22;54.01;99779.63;1717419;82;21016;-71
2022/05/24 04:37:22;;;;;;;4.95;2.80;;;;;;;12.28;53.62;99784.35;1720608;82;21104;-71
2022/05/24 04:39:50;;;;;;;3.87;2.60;;;;;;;12.36;53.76;99787.11;1699436;82;21015;-69
2022/05/24 04:42:21;;;;;;;4.62;3.15;;;;;;;12.44;52.86;99788.50;1699250;84;21947;-69
2022/05/24 04:44:57;;;;;;;7.72;3.00;;;;;;;12.49;52.70;99782.28;1698822;82;21463;-70
2022/05/24 04:47:28;;;;;;;6.50;2.70;;;;;;;12.58;52.78;99788.50;1701304;82;21071;-73
2022/05/24 04:49:57;;;;;;;6.97;2.80;;;;;;;12.67;52.12;99797.38;1703301;84;21040;-73
2022/05/24 04:52:28;;;;;;;4.05;2.60;;;;;;;12.73;52.05;99791.46;1704713;82;21060;-73
2022/05/24 04:54:55;;;;;;;9.75;2.90;;;;;;;12.83;52.22;99799.69;1695588;82;21901;-72
2022/05/24 04:57:22;;;;;;;8.80;2.87;;;;;;;12.94;52.43;99798.66;1701914;83;20987;-74
2022/05/24 04:59:49;;;;;;;6.22;3.17;;;;;;;13.04;52.13;99802.56;1705762;82;21041;-71
2022/05/24 05:02:16;;;;;;;5.42;2.90;;;;;;;13.06;52.16;99795.28;1695459;82;21055;-72
2022/05/24 05:04:43;;;;;;;4.72;2.90;;;;;;;13.13;52.23;99795.02;1697259;84;21485;-71
2022/05/24 05:07:09;;;;;;;5.03;3.00;;;;;;;13.22;52.40;99799.91;1690601;84;21810;-71
2022/05/24 05:09:36;;;;;;;4.87;3.10;;;;;;;13.30;52.73;99803.47;1701338;84;21119;-70
2022/05/24 05:12:06;;;;;;;5.35;2.77;;;;;;;13.38;52.11;99806.69;1707588;83;21052;-73
2022/05/24 05:14:34;;;;;;;7.58;2.92;;;;;;;13.42;52.22;99807.57;1704263;84;21024;-72
2022/05/24 05:17:01;;;;;;;7.30;3.15;;;;;;;13.48;51.91;99814.06;1709842;82;21056;-74
2022/05/24 05:19:30;;;;;;;4.28;2.80;;;;;;;13.55;51.96;99811.63;1709966;82;21921;-72
2022/05/24 05:21:57;;;;;;;4.05;2.75;;;;;;;13.60;51.14;99808.84;1698109;83;21610;-71
2022/05/24 05:24:23;;;;;;;4.92;2.80;;;;;;;13.68;51.03;99812.88;1696413;82;21102;-71
2022/05/24 05:26:50;;;;;;;4.78;2.95;;;;;;;13.79;51.08;99809.63;1698093;82;21027;-73
2022/05/24 05:31:16;;;;;;;4.62;3.12;;;;;;;13.90;51.52;99818.19;1697262;83;21362;-78
2022/05/24 05:31:46;;;;;;;6.08;3.00;;;;;;;14.00;51.19;99816.75;1705571;81;21910;-75
2022/05/24 05:34:13;;;;;;;6.67;2.92;;;;;;;14.07;50.01;99810.30;1704421;82;21024;-74
2022/05/24 05:36:42;;;;;;;7.85;3.00;;;;;;;14.13;50.13;99813.66;1700600;82;21032;-73
2022/05/24 05:39:09;;;;;;;5.12;2.83;;;;;;;14.19;50.06;99813.88;1714922;83;21102;-75
2022/05/24 05:41:37;;;;;;;4.58;2.60;;;;;;;14.24;49.92;99820.84;1720807;82;21047;-73
2022/05/24 05:44:06;;;;;;;4.03;2.90;;;;;;;14.30;50.31;99813.59;1719740;82;22343;-74
2022/05/24 05:46:32;;;;;;;4.67;2.60;;;;;;;14.40;50.71;99816.62;1683007;83;21031;-73
2022/05/24 05:49:00;;;;;;;6.50;2.85;;;;;;;14.46;49.96;99818.14;1656143;86;21064;-73
2022/05/24 05:51:28;;;;;;;6.53;2.98;;;;;;;14.53;50.26;99826.32;1682560;83;21071;-74
2022/05/24 05:53:57;;;;;;;5.67;3.40;;;;;;;14.64;50.81;99822.03;1640177;85;21503;-73
2022/05/24 05:56:23;;;;;;;7.85;2.98;;;;;;;14.73;50.38;99824.22;1647249;86;21800;-74
2022/05/24 05:58:50;;;;;;;3.90;2.72;;;;;;;14.80;49.93;99820.77;1658931;85;21056;-73
2022/05/24 06:01:29;;;;;;;3.92;2.77;;;;;;;14.87;49.31;99827.60;1678197;84;21049;-72
2022/05/24 06:03:53;;;;;;;6.30;2.90;;;;;;;14.95;48.57;99822.27;1675623;84;21451;-71
2022/05/24 06:06:22;;;;;;;4.80;2.52;;;;;;;15.02;48.53;99824.63;1641029;85;21085;-72
2022/05/24 06:08:51;;;;;;;4.08;2.65;;;;;;;15.10;48.91;99829.96;1635966;85;22275;-73
2022/05/24 06:11:22;;;;;;;3.33;2.45;;;;;;;15.21;48.58;99826.14;1676089;83;21039;-73
2022/05/24 06:13:49;;;;;;;6.53;2.40;;;;;;;15.33;47.66;99832.80;1638267;85;21051;-73
2022/05/24 06:16:16;;;;;;;3.15;2.42;;;;;;;15.42;47.59;99830.97;1652076;86;21464;-73
2022/05/24 06:18:44;;;;;;;3.40;2.30;;;;;;;15.51;46.92;99825.98;1685176;83;21078;-74
2022/05/24 06:21:12;;;;;;;2.75;1.95;;;;;;;15.64;44.74;99822.88;1651060;86;22459;-73
2022/05/24 06:23:39;;;;;;;4.53;2.08;;;;;;;15.74;41.34;99827.52;1682929;83;22234;-73
2022/05/24 06:26:08;;;;;;;3.65;2.20;;;;;;;15.82;41.65;99820.83;1688430;83;21043;-73
2022/05/24 06:28:35;;;;;;;3.00;2.27;;;;;;;15.90;42.58;99819.48;1648132;87;21068;-74
2022/05/24 06:31:02;;;;;;;4.33;2.40;;;;;;;15.98;42.22;99826.13;1655532;85;21093;-74
2022/05/24 06:33:29;;;;;;;3.15;2.17;;;;;;;16.06;42.36;99827.12;1653637;86;21927;-74
2022/05/24 06:35:56;;;;;;;3.70;2.10;;;;;;;16.17;40.65;99830.75;1650609;86;21186;-73
2022/05/24 06:38:23;;;;;;;3.65;2.00;;;;;;;16.17;39.11;99832.91;1643124;86;20971;-73
2022/05/24 06:40:50;;;;;;;5.03;2.12;;;;;;;16.15;39.64;99835.42;1663501;84;21135;-74
2022/05/24 06:43:17;;;;;;;5.40;2.00;;;;;;;16.13;39.52;99832.11;1668225;84;20953;-73
2022/05/24 06:45:44;;;;;;;4.08;2.17;;;;;;;16.16;40.50;99830.42;1662528;84;21852;-72
2022/05/24 06:48:11;;;;;;;4.62;2.20;;;;;;;16.27;40.48;99830.05;1663864;84;21633;-73
2022/05/24 06:50:41;;;;;;;3.52;2.22;;;;;;;16.35;40.46;99826.03;1660835;84;21085;-72
2022/05/24 06:53:08;;;;;;;8.78;2.35;;;;;;;16.43;40.29;99837.17;1663964;84;21037;-71
2022/05/24 06:55:37;;;;;;;3.15;2.25;;;;;;;16.48;39.78;99832.96;1663819;84;21101;-76
2022/05/24 06:58:05;;;;;;;3.67;2.12;;;;;;;16.51;39.79;99832.64;1664215;86;22830;-72
2022/05/24 07:03:18;;;;;;;3.45;2.25;;;;;;;16.55;39.59;99833.11;1656780;84;21063;-73
2022/05/24 07:05:46;;;;;;;3.90;2.30;;;;;;;16.65;38.79;99831.56;1661928;84;21113;-74
2022/05/24 07:08:14;;;;;;;7.67;2.15;;;;;;;16.72;38.10;99831.23;1663305;85;21068;-72
2022/05/24 07:10:43;;;;;;;4.50;2.08;;;;;;;16.73;37.65;99833.73;1662918;84;21079;-73
2022/05/24 07:13:12;;;;;;;3.72;2.40;;;;;;;16.76;36.62;99839.20;1663020;85;21609;-72
2022/05/24 07:15:40;;;;;;;3.22;2.00;;;;;;;16.77;36.80;99836.86;1662910;84;21107;-73
2022/05/24 07:18:07;;;;;;;5.53;2.22;;;;;;;16.79;37.28;99833.52;1679615;83;21078;-75
2022/05/24 07:20:36;;;;;;;4.47;2.22;;;;;;;16.79;38.33;99837.52;1667884;84;21934;-74
2022/05/24 07:23:18;;;;;;;3.70;2.20;;;;;;;16.88;37.38;99838.63;1672367;84;21878;-72
2022/05/24 07:25:46;;;;;;;4.42;2.20;;;;;;;17.03;37.16;99826.71;1663974;86;21051;-74
2022/05/24 07:28:16;;;;;;;5.00;2.20;;;;;;;17.20;35.82;99837.28;1651714;85;21128;-74
2022/05/24 07:30:44;;;;;;;6.40;2.37;;;;;;;17.26;35.46;99831.22;1648493;85;21119;-73
2022/05/24 07:33:12;;;;;;;3.33;2.05;;;;;;;17.33;35.17;99833.51;1655015;85;21476;-74
2022/05/24 07:35:40;;;;;;;3.40;2.05;;;;;;;17.38;35.44;99836.48;1681552;84;22363;-73
2022/05/24 07:38:09;;;;;;;4.55;1.85;;;;;;;17.51;35.75;99836.70;1665108;84;21326;-73
2022/05/24 07:46:13;;;;;;;5.05;2.17;;;;;;;17.80;32.91;99839.16;1705234;82;20995;-75
2022/05/24 07:48:39;;;;;;;4.28;1.92;;;;;;;17.79;32.34;99838.84;1706335;82;22560;-77
2022/05/24 07:51:06;;;;;;;4.12;2.08;;;;;;;17.81;32.93;99842.15;1716850;82;21091;-76
2022/05/24 07:53:33;;;;;;;4.17;1.80;;;;;;;17.89;32.87;99842.08;1710906;82;21019;-76
2022/05/24 07:56:00;;;;;;;4.92;1.82;;;;;;;17.99;32.87;99841.30;1711541;83;21024;-76
2022/05/24 07:58:27;;;;;;;2.47;1.90;;;;;;;18.07;32.44;99849.24;1705915;82;21021;-76
2022/05/24 08:00:58;;;;;;;3.83;2.25;;;;;;;18.10;32.62;99854.72;1709185;82;22398;-73
2022/05/24 08:03:24;;;;;;;4.58;1.85;;;;;;;18.15;31.82;99845.66;1709619;82;21025;-72
2022/05/24 08:05:51;;;;;;;4.47;1.90;;;;;;;18.18;31.44;99855.98;1708351;82;21059;-73
2022/05/24 08:08:18;;;;;;;3.02;2.02;;;;;;;18.22;32.20;99852.73;1710456;82;21243;-74
2022/05/24 08:10:45;;;;;;;4.67;1.90;;;;;;;18.25;31.16;99853.73;1708001;82;21513;-75
2022/05/24 08:13:16;;;;;;;2.90;1.50;;;;;;;18.21;30.66;99848.41;1708415;83;21908;-75
2022/05/24 08:15:43;;;;;;;3.85;1.90;;;;;;;18.14;30.42;99850.66;1698830;82;21670;-74
2022/05/24 08:18:12;;;;;;;4.50;1.98;;;;;;;18.09;31.35;99849.06;1706335;82;21019;-77
2022/05/24 08:20:38;;;;;;;4.92;1.90;;;;;;;18.17;31.34;99848.47;1710856;82;21020;-75
2022/05/24 08:23:07;;;;;;;3.92;2.00;;;;;;;18.28;31.57;99854.69;1712586;82;21043;-72
2022/05/24 08:25:35;;;;;;;3.58;1.75;;;;;;;18.44;30.97;99851.52;1714495;82;22814;-71
2022/05/24 08:28:07;;;;;;;3.02;1.62;;;;;;;18.49;30.45;99846.42;1710089;82;21115;-70
2022/05/24 08:30:35;;;;;;;7.55;1.82;;;;;;;18.52;30.81;99846.88;1708078;82;21015;-70
2022/05/24 08:33:04;;;;;;;2.98;1.92;;;;;;;18.65;31.09;99846.27;1710946;83;21070;-68
2022/05/24 08:35:34;;;;;;;5.00;1.67;;;;;;;18.77;31.11;99845.27;1713076;82;21095;-70
2022/05/24 08:38:05;;;;;;;3.70;1.90;;;;;;;18.82;30.37;99848.23;1710230;82;22008;-72
2022/05/24 08:40:40;;;;;;;3.00;1.50;;;;;;;18.89;30.51;99841.08;1714476;82;20996;-68
2022/05/24 08:43:19;;;;;;;;;;;;;;;19.00;30.14;99849.13;1710262;82;21087;-68
2022/05/24 08:48:52;;;;;;;;;;;;;;;19.09;29.92;99847.99;1707036;82;20950;-68
2022/05/24 08:51:45;;;;;;;7.42;6.00;;;;;;;19.11;29.51;99848.15;1705615;82;21951;-70
2022/05/24 08:54:46;;;;;;;6.62;2.02;;;;;;;19.13;28.92;99851.97;1684074;83;21031;-71
2022/05/24 08:57:23;;;;;;;3.35;2.00;;;;;;;19.09;28.64;99856.02;1705687;82;21437;-71
2022/05/24 08:59:57;;;;;;;5.35;1.92;;;;;;;19.04;28.75;99855.27;1688940;83;21020;-69
2022/05/24 09:02:24;;;;;;;4.05;1.80;;;;;;;19.10;29.05;99860.36;1709799;82;21048;-70
2022/05/24 09:04:51;;;;;;;4.03;2.00;;;;;;;19.24;29.38;99851.97;1703094;82;21665;-69
2022/05/24 09:07:41;;;;;;;2.58;1.60;;;;;;;19.31;28.91;99847.52;1712426;83;21027;-71
2022/05/24 09:10:15;;;;;;;3.27;2.27;;;;;;;19.28;28.34;99854.06;1688332;83;21059;-70
2022/05/24 09:13:04;;;;;;;3.42;2.10;;;;;;;19.27;28.76;99849.73;1715442;82;21012;-72
2022/05/24 09:15:55;;;;;;;4.15;1.82;;;;;;;19.36;28.92;99854.45;1709118;82;21072;-70
2022/05/24 09:18:47;;;;;;;2.85;1.90;;;;;;;19.53;29.33;99848.34;1712090;82;22472;-73
2022/05/24 09:21:29;;;;;;;2.62;1.60;;;;;;;19.73;28.35;99852.05;1708812;83;21574;-74
2022/05/24 09:24:21;;;;;;;3.42;1.95;;;;;;;19.89;29.38;99854.96;1710058;82;21558;-69
2022/05/24 09:27:23;;;;;;;3.47;1.92;;;;;;;20.02;28.30;99861.75;1695966;82;21058;-70
2022/05/24 09:30:10;;;;;;;5.42;2.00;;;;;;;20.04;28.86;99856.19;1708059;82;21040;-72
2022/05/24 09:32:44;;;;;;;5.55;1.80;;;;;;;20.12;29.53;99858.72;1711032;82;22693;-75
2022/05/24 09:35:25;;;;;;;2.12;1.57;;;;;;;20.25;28.59;99855.59;1705693;82;21609;-79
2022/05/24 09:38:14;;;;;;;3.40;1.75;;;;;;;20.32;28.33;99848.94;1704864;83;21054;-76
2022/05/24 09:40:56;;;;;;;2.77;1.70;;;;;;;20.32;28.13;99850.28;1705075;81;21014;-74
2022/05/24 09:43:33;;;;;;;3.67;1.90;;;;;;;20.42;29.39;99853.95;1692063;82;21305;-74
2022/05/24 09:46:10;;;;;;;2.37;1.60;;;;;;;20.55;28.04;99850.84;1667621;84;21935;-74
2022/05/24 09:49:03;;;;;;;4.75;1.90;;;;;;;20.51;28.28;99848.25;1694467;82;21281;-77
2022/05/24 09:51:38;;;;;;;3.75;1.87;;;;;;;20.55;26.98;99849.50;1693964;82;21046;-72
2022/05/24 09:54:16;;;;;;;6.75;1.87;;;;;;;20.46;26.79;99849.37;1691906;82;21035;-74
2022/05/24 09:57:13;;;;;;;3.10;1.77;;;;;;;20.48;27.68;99847.31;1698031;84;21081;-76
2022/05/24 09:59:42;;;;;;;4.97;1.95;;;;;;;20.61;27.20;99845.20;1685685;82;22813;-79
2022/05/24 10:02:25;;;;;;;4.97;1.80;;;;;;;20.58;26.91;99850.46;1697326;84;21556;-77
2022/05/24 10:04:52;;;;;;;2.10;1.70;;;;;;;20.53;26.76;99844.84;1695142;84;21055;-75
2022/05/24 10:07:27;;;;;;;3.45;1.65;;;;;;;20.53;27.03;99838.14;1701701;82;21040;-80
2022/05/24 10:10:12;;;;;;;2.67;1.67;;;;;;;20.65;27.12;99833.02;1691469;84;21043;-75
2022/05/24 10:13:24;;;;;;;3.08;1.70;;;;;;;20.85;26.15;99845.20;1686706;83;21852;-76
2022/05/24 10:16:13;;;;;;;3.75;1.50;;;;;;;20.89;26.08;99845.62;1702500;84;21461;-74
2022/05/24 10:19:10;;;;;;;5.72;1.80;;;;;;;21.04;26.37;99834.22;1694548;83;21034;-74
2022/05/24 10:22:02;;;;;;;3.33;1.60;;;;;;;21.06;25.10;99841.55;1697045;84;21098;-75
2022/05/24 10:24:59;;;;;;;8.90;1.90;;;;;;;21.00;26.04;99836.98;1695698;82;21067;-72
2022/05/24 10:28:06;;;;;;;4.42;1.60;;;;;;;21.21;27.67;99831.96;1666588;84;22532;-74
2022/05/24 10:31:10;;;;;;;2.70;1.55;;;;;;;21.39;25.97;99838.42;1668272;84;20972;-75
2022/05/24 10:40:00;;;;;;;3.55;1.70;;;;;;;21.52;25.99;99836.29;1694621;82;21138;-74
2022/05/24 10:42:57;;;;;;;2.17;1.57;;;;;;;21.70;26.12;99836.98;1693545;83;22568;-73
2022/05/24 10:45:49;;;;;;;3.35;1.70;;;;;;;21.90;24.82;99832.95;1690110;84;21399;-74
2022/05/24 10:48:07;;;;;;;3.58;1.85;;;;;;;21.66;24.60;99839.28;1689201;84;21110;-74
2022/05/24 10:50:44;;;;;;;4.37;1.70;;;;;;;21.60;25.55;99848.16;1699055;84;21099;-75
2022/05/24 10:53:34;;;;;;;3.45;1.80;;;;;;;21.57;25.10;99837.00;1692866;84;21007;-74
2022/05/24 10:56:15;;;;;;;5.90;2.12;;;;;;;21.51;25.77;99840.50;1690815;83;21940;-74
2022/05/24 10:58:42;;;;;;;4.47;1.80;;;;;;;21.57;25.26;99844.55;1701532;82;21387;-74
2022/05/24 11:01:20;;;;;;;3.25;1.98;;;;;;;21.67;25.50;99840.09;1698404;84;21012;-75
2022/05/24 11:03:50;;;;;;;3.50;1.77;;;;;;;21.84;25.23;99832.45;1691775;84;20972;-74
2022/05/24 11:06:40;;;;;;;5.67;1.72;;;;;;;21.95;25.72;99829.95;1673435;84;20972;-74
2022/05/24 11:09:12;;;;;;;2.95;2.00;;;;;;;22.19;25.66;99837.06;1696154;84;21822;-74
2022/05/24 11:12:14;;;;;;;3.37;1.50;;;;;;;22.38;24.14;99838.88;1692732;83;21039;-74
2022/05/24 11:14:45;;;;;;;2.25;1.65;;;;;;;22.48;24.73;99833.87;1702535;82;21010;-73
2022/05/24 11:17:12;;;;;;;2.05;1.60;;;;;;;22.70;24.21;99835.78;1659822;86;21098;-73
2022/05/24 11:19:50;;;;;;;2.30;1.65;;;;;;;22.77;24.24;99825.79;1628489;88;21022;-74
2022/05/24 11:22:38;;;;;;;2.42;1.52;;;;;;;22.85;23.51;99826.92;1627718;86;21947;-74
2022/05/24 11:25:19;;;;;;;5.28;1.67;;;;;;;22.93;22.99;99833.11;1627799;87;20974;-74
2022/05/24 11:28:05;;;;;;;4.50;1.70;;;;;;;22.88;23.49;99830.25;1628619;86;21054;-74
2022/05/24 11:30:39;;;;;;;1.90;1.55;;;;;;;22.89;22.53;99834.08;1660497;86;21048;-74
2022/05/24 11:33:17;;;;;;;3.52;1.35;;;;;;;22.83;23.06;99833.02;1655796;86;20976;-74
2022/05/24 11:35:50;;;;;;;2.25;1.42;;;;;;;22.94;23.29;99839.63;1651156;84;22795;-74
2022/05/24 11:38:32;;;;;;;7.97;1.55;;;;;;;23.24;22.31;99834.47;1648612;87;20971;-74
2022/05/24 11:41:12;;;;;;;2.50;1.60;;;;;;;23.42;21.87;99837.25;1648615;86;21056;-73
2022/05/24 11:43:54;;;;;;;2.40;1.57;;;;;;;23.37;21.73;99835.75;1648487;86;21069;-75
2022/05/24 11:46:37;;;;;;;2.70;1.52;;;;;;;23.36;21.79;99837.31;1649277;87;21013;-75
2022/05/24 11:49:05;;;;;;;;;;;;;;;23.40;22.10;99833.95;1625544;85;21823;-76
2022/05/24 11:51:48;;;;;;;3.75;1.25;;;;;;;23.53;21.68;99833.55;1632326;87;20543;-75
2022/05/24 11:54:23;;;;;;;3.60;1.37;;;;;;;23.64;21.21;99836.41;1627227;87;21059;-76
2022/05/24 11:57:10;;;;;;;3.00;1.25;;;;;;;23.68;21.77;99830.05;1627601;87;21078;-75
2022/05/24 11:59:46;;;;;;;2.58;1.70;;;;;;;23.73;21.27;99834.77;1626689;86;21086;-75
2022/05/24 12:07:54;;;;;;;5.90;1.40;;;;;;;23.76;21.51;99841.91;1628435;88;21919;-74
2022/05/24 12:08:07;;;;;;;2.98;1.30;;;;;;;24.00;21.20;99837.52;1619426;87;21033;-75
2022/05/24 12:10:53;;;;;;;2.45;1.52;;;;;;;24.09;19.50;99844.81;1628644;86;20987;-75
2022/05/24 12:13:40;;;;;;;1.35;1.25;;;;;;;24.14;18.63;99834.19;1643024;86;21033;-74
2022/05/24 12:16:38;;;;;;;2.77;1.30;;;;;;;24.14;18.61;99835.02;1627935;87;22016;-75
2022/05/24 12:19:07;;;;;;;3.58;1.42;;;;;;;24.37;19.26;99831.67;1638023;86;20968;-75
2022/05/24 12:21:41;;;;;;;2.90;1.40;;;;;;;24.34;19.00;99833.48;1650629;85;21016;-75
2022/05/24 12:24:31;;;;;;;2.87;1.47;;;;;;;24.32;20.25;99830.19;1655890;85;21002;-75
2022/05/24 12:27:31;;;;;;;2.45;1.55;;;;;;;24.52;19.56;99836.71;1640841;86;21598;-75
2022/05/24 12:30:28;;;;;;;1.90;1.32;;;;;;;24.65;19.28;99831.66;1597304;89;21936;-74
2022/05/24 12:32:58;;;;;;;2.85;1.40;;;;;;;24.62;18.72;99829.43;1627769;87;21047;-74
2022/05/24 12:35:25;;;;;;;2.30;1.40;;;;;;;24.35;19.15;99833.78;1639532;86;21048;-74